Flight Track Log - Related Links

Times and Time Zones

All times are in EDT time to prevent confusion due to time zone crossing. See the UAL4257 flight status page for this flight to view local times or setup timezone preferences in your user account.

Time Position Orientation Groundspeed Altitude Reporting Facility
EDT Latitude Longitude Course Direction KTS MPH feet Rate Location/Type
Fri 12:17:31 PM 26.0200 -99.9003 44° Northeast 289 333 12,900  Level Houston Center
Fri 12:18:00 PM 26.1925 -99.6614 44° Northeast  Level Estimated
Fri 12:18:33 PM 26.0775 -99.8181 52° Northeast 316 364 14,300  Level Houston Center
Fri 12:19:00 PM 26.2646 -99.5833 44° Northeast  Level Estimated
Fri 12:19:36 PM 26.1364 -99.7328 52° Northeast 334 384 15,700  Level Houston Center
Fri 12:20:00 PM 26.3366 -99.5052 44° Northeast  Level Estimated
Fri 12:20:38 PM 26.2092 -99.6267 53° Northeast 349 402 17,300  Level Houston Center
Fri 12:21:00 PM 26.4086 -99.4270 44° Northeast  Level Estimated
Fri 12:21:40 PM 26.2711 -99.5372 52° Northeast 357 411 18,300  Level Houston Center
Fri 12:22:00 PM 26.4805 -99.3487 44° Northeast  Level Estimated
Fri 12:22:42 PM 26.3333 -99.4467 53° Northeast 363 418 19,700  Level Houston Center
Fri 12:23:44 PM 26.3978 -99.3533 52° Northeast 371 427 21,000 1,306 Climbing Houston Center
Fri 12:24:46 PM 26.4644 -99.2603 51° Northeast 378 435 22,400 1,452 Climbing Houston Center
Fri 12:25:48 PM 26.5547 -99.1575 46° Northeast 385 443 24,000 1,452 Climbing Houston Center
Fri 12:26:50 PM 26.6336 -99.0747 43° Northeast 389 448 25,400 1,306 Climbing Houston Center
Fri 12:27:52 PM 26.7156 -98.9975 40° Northeast 388 447 26,700 1,306 Climbing Houston Center
Fri 12:28:54 PM 26.7981 -98.9200 40° Northeast 388 447 28,100 1,296 Climbing Houston Center
Fri 12:29:57 PM 26.8794 -98.8408 41° Northeast 389 448 29,400 1,248 Climbing Houston Center
Fri 12:30:59 PM 26.9600 -98.7608 42° Northeast 389 448 30,700 1,452 Climbing Houston Center
Fri 12:32:01 PM 27.0575 -98.6658 41° Northeast 390 449 32,400 1,113 Climbing Houston Center
Fri 12:33:03 PM 27.1394 -98.5869 41° Northeast 389 448 33,000 290 Climbing Houston Center
Fri 12:34:05 PM 27.2269 -98.5006 41° Northeast 413 475 33,000  Level Houston Center
Fri 12:35:07 PM 27.3219 -98.4083 41° Northeast 443 510 33,000  Level Houston Center
Fri 12:36:09 PM 27.4403 -98.2900 42° Northeast 470 541 33,000  Level Houston Center
Fri 12:37:11 PM 27.5403 -98.1919 41° Northeast 478 550 33,000  Level Houston Center
Fri 12:38:13 PM 27.6403 -98.0942 41° Northeast 478 550 33,000  Level Houston Center
Fri 12:39:15 PM 27.7381 -97.9956 42° Northeast 474 545 33,000 -48 Level Houston Center
Fri 12:40:17 PM 27.8353 -97.8997 41° Northeast 466 536 32,900  Descending Houston Center
Fri 12:41:20 PM 27.9325 -97.8039 41° Northeast 465 535 33,000 48 Climbing Houston Center
Fri 12:42:22 PM 28.0394 -97.6981 41° Northeast 462 532 33,000  Level Houston Center
Fri 12:43:24 PM 28.1361 -97.6025 41° Northeast 463 533 33,000  Level Houston Center
Fri 12:44:26 PM 28.2331 -97.5039 42° Northeast 467 537 33,000  Level Houston Center
Fri 12:45:28 PM 28.3503 -97.3867 41° Northeast 470 541 33,000 -145 Level Houston Center
Fri 12:46:30 PM 28.4492 -97.2875 41° Northeast 475 547 32,700 -677 Descending Houston Center
Fri 12:47:32 PM 28.5464 -97.1914 41° Northeast 464 534 31,600 -1,113 Descending Houston Center
Fri 12:48:34 PM 28.6494 -97.1056 36° Northeast 461 531 30,400 -1,210 Descending Houston Center
Fri 12:49:36 PM 28.7650 -97.0506 23° Northeast 452 520 29,100 -1,306 Descending Houston Center
Fri 12:50:38 PM 28.8978 -96.9758 26° Northeast 445 512 27,700 -1,306 Descending Houston Center
Fri 12:51:40 PM 28.9844 -96.8700 47° Northeast 459 528 26,400 -1,536 Descending Houston Center
Fri 12:52:43 PM 29.0658 -96.7678 48° Northeast 443 510 24,500 -1,920 Descending Houston Center
Fri 12:53:45 PM 29.1464 -96.6678 47° Northeast 434 499 22,400 -2,032 Descending Houston Center
Fri 12:54:47 PM 29.2231 -96.5719 47° Northeast 416 479 20,300 -1,742 Descending Houston Center
Fri 12:55:49 PM 29.3128 -96.4592 48° Northeast 404 465 18,800 -1,850 Descending Houston Center
Fri 12:57:00 PM 29.4053 -96.3431 48° Northeast 412 474 16,200 -2,323 Descending Houston Center
Fri 12:57:53 PM 29.4661 -96.2675 47° Northeast 414 476 14,000 -2,087 Descending Houston Center
Fri 12:58:55 PM 29.5406 -96.1722 48° Northeast 404 465 12,200 -1,500 Descending Houston Center
Fri 12:59:57 PM 29.5936 -96.0728 58° Northeast 367 422 10,900 -1,104 Descending Houston Center
Fri 01:01:00 PM 29.6425 -95.9722 61° Northeast 318 366 9,900 -627 Descending Houston Center
Fri 01:02:11 PM 29.6961 -95.8686 59° Northeast 297 342 9,500 -909 Descending Houston Center
Fri 01:03:12 PM 29.7336 -95.7944 60° Northeast 270 311 7,900 -1,561 Descending Houston Center
Fri 01:04:14 PM 29.7708 -95.7181 61° Northeast 254 292 6,300 -927 Descending Houston Center
Fri 01:05:15 PM 29.8064 -95.6464 60° Northeast 251 289 6,000 -155 Descending Houston Center
Fri 01:06:10 PM 29.8367 -95.5850 60° Northeast 247 284 6,000  Level Houston Center
Fri 01:07:11 PM 29.8725 -95.5158 59° Northeast 240 276 6,000  Level Houston Center
Fri 01:08:14 PM 29.8961 -95.4486 68° East 251 289 6,000  Level Houston Center
Fri 01:09:13 PM 29.8956 -95.3564 90° East 270 311 6,000  Level Houston Center
Fri 01:10:14 PM 29.8964 -95.2719 89° East 268 308 6,000 -47 Level Houston Center
Fri 01:11:21 PM 29.8967 -95.1928 90° East 254 292 5,900 -836 Descending Houston Center
Fri 01:12:16 PM 29.8967 -95.1175 90° East 218 251 4,300 -927 Descending Houston Center
Fri 01:13:24 PM 29.9403 -95.0906 28° Northeast 168 193 4,000 -585 Descending Houston Center
Fri 01:14:19 PM 29.9758 -95.1103 334° Northwest 161 185 3,100 -818 Descending Houston Center
Fri 01:15:14 PM 29.9928 -95.1564 293° West 170 196 2,500 -600 Descending Houston Center
Fri 01:15:29 PM 29.9953 -95.1644 290° West 166 191 2,400 -492 Descending Houston Center
Fri 01:16:15 PM 29.9933 -95.2094 267° West 156 180 2,000 -484 Descending Houston Center
Fri 01:16:31 PM 29.9939 -95.2192 274° West 169 194 1,900 -684 Descending Houston Center
Fri 01:17:34 PM 29.9936 -95.2675 270° West 163 188 1,100 -756 Descending Houston Center
Fri 01:18:30 PM 29.9922 -95.3108 268° West 122 140 400 -750 Descending Houston Center

Login

Don't have an account? Register now (free) for customized features, flight alerts, and more!